Time;durP1;ratioP1;P1;durP2;ratioP2;P2;SDS_P1;SDS_P2;PMS_P1;PMS_P2;Temp;Humidity;BMP_temperature;BMP_pressure;BME280_temperature;BME280_humidity;BME280_pressure;Samples;Min_cycle;Max_cycle;Signal;HPM_P1;HPM_P2
2022/03/11 00:01:38;;;;;;;18.00;8.53;;;12.00;64.40;;;;;;12917271;23;20210;-77
2022/03/11 00:06:59;;;;;;;13.60;8.07;;;12.00;64.50;;;;;;12934869;23;20167;-77
2022/03/11 00:12:02;;;;;;;13.93;7.63;;;12.00;64.40;;;;;;12934745;23;20205;-77
2022/03/11 00:17:06;;;;;;;13.00;7.73;;;12.00;64.90;;;;;;12889266;23;20179;-77
2022/03/11 00:22:10;;;;;;;12.73;8.23;;;12.00;64.60;;;;;;12916912;23;20224;-77
2022/03/11 00:27:12;;;;;;;13.50;7.63;;;12.10;64.80;;;;;;12864682;23;20565;-77
2022/03/11 00:32:15;;;;;;;15.50;8.53;;;12.20;64.10;;;;;;12889112;23;20184;-77
2022/03/11 00:37:17;;;;;;;14.10;8.10;;;12.10;63.90;;;;;;12916378;23;20170;-77
2022/03/11 00:42:20;;;;;;;13.70;7.83;;;12.20;63.80;;;;;;12916895;23;20222;-77
2022/03/11 00:47:22;;;;;;;14.77;8.17;;;12.10;63.70;;;;;;12889950;23;20199;-77
2022/03/11 00:52:24;;;;;;;13.93;7.67;;;12.10;63.70;;;;;;12864629;23;20228;-77
2022/03/11 00:57:27;;;;;;;11.63;7.23;;;12.10;63.60;;;;;;12916328;23;20173;-77
2022/03/11 01:02:34;;;;;;;11.33;7.57;;;12.10;64.20;;;;;;12916665;23;20193;-77
2022/03/11 01:07:37;;;;;;;13.00;6.77;;;12.10;63.70;;;;;;12916149;23;20193;-77
2022/03/11 01:12:39;;;;;;;14.50;7.97;;;12.10;63.50;;;;;;12890149;23;20178;-77
2022/03/11 01:17:42;;;;;;;14.73;8.07;;;12.20;63.10;;;;;;12888809;23;20699;-78
2022/03/11 01:22:44;;;;;;;10.80;7.27;;;12.20;62.90;;;;;;12863902;23;20252;-77
2022/03/11 01:27:47;;;;;;;14.37;7.43;;;12.10;63.00;;;;;;12889631;23;20169;-77
2022/03/11 01:32:50;;;;;;;14.03;7.70;;;12.10;63.00;;;;;;12889369;23;20208;-77
2022/03/11 01:37:52;;;;;;;13.63;7.87;;;12.00;63.00;;;;;;12916175;23;20169;-77
2022/03/11 01:42:55;;;;;;;12.37;7.73;;;12.20;62.90;;;;;;12888452;23;20687;-77
2022/03/11 01:47:57;;;;;;;10.67;7.03;;;12.20;62.60;;;;;;12918736;23;20173;-77
2022/03/11 01:53:00;;;;;;;14.27;7.50;;;12.20;62.50;;;;;;12892457;23;20693;-77
2022/03/11 01:58:04;;;;;;;12.27;7.13;;;12.30;62.30;;;;;;12919578;23;20530;-77
2022/03/11 02:03:07;;;;;;;11.90;7.63;;;12.20;62.40;;;;;;12919680;23;20186;-77
2022/03/11 02:08:10;;;;;;;15.63;7.57;;;12.10;62.40;;;;;;12892402;23;20706;-77
2022/03/11 02:13:13;;;;;;;13.37;7.63;;;12.20;62.40;;;;;;12893163;23;20490;-77
2022/03/11 02:18:16;;;;;;;14.03;8.13;;;12.20;62.20;;;;;;12919391;23;20173;-77
2022/03/11 02:23:19;;;;;;;15.90;7.43;;;12.20;62.20;;;;;;12910213;23;20214;-77
2022/03/11 02:28:32;;;;;;;10.77;7.33;;;12.20;62.10;;;;;;12918550;23;20165;-77
2022/03/11 02:33:35;;;;;;;11.13;7.70;;;12.30;62.00;;;;;;12924655;23;20562;-77
2022/03/11 02:38:38;;;;;;;12.83;8.03;;;12.30;61.70;;;;;;12918670;23;20212;-78
2022/03/11 02:43:42;;;;;;;15.90;8.63;;;12.30;61.60;;;;;;12919145;23;20232;-77
2022/03/11 02:48:44;;;;;;;12.27;7.43;;;12.50;61.40;;;;;;12866200;23;20227;-77
2022/03/11 02:53:47;;;;;;;13.63;8.57;;;12.30;61.40;;;;;;12892004;23;20197;-77
2022/03/11 02:58:49;;;;;;;14.97;8.67;;;12.30;60.70;;;;;;12891684;23;20194;-78
2022/03/11 03:03:52;;;;;;;14.47;8.97;;;12.40;61.10;;;;;;12917697;23;20239;-77
2022/03/11 03:08:54;;;;;;;11.17;7.07;;;12.30;61.20;;;;;;12891725;23;20169;-77
2022/03/11 03:13:57;;;;;;;13.03;8.30;;;12.30;61.30;;;;;;12890415;23;20181;-77
2022/03/11 03:18:59;;;;;;;12.77;8.17;;;12.10;61.60;;;;;;12891401;23;20229;-77
2022/03/11 03:24:02;;;;;;;11.80;7.63;;;12.10;61.50;;;;;;12890655;23;20187;-77
2022/03/11 03:29:04;;;;;;;12.93;7.60;;;12.10;61.60;;;;;;12890401;23;20548;-77
2022/03/11 03:34:07;;;;;;;13.00;7.70;;;12.10;61.40;;;;;;12891352;23;20644;-77
2022/03/11 03:39:09;;;;;;;14.00;7.67;;;12.10;61.10;;;;;;12889608;23;20182;-77
2022/03/11 03:44:12;;;;;;;12.43;6.73;;;12.10;61.50;;;;;;12890681;23;20254;-77
2022/03/11 03:49:15;;;;;;;11.50;7.23;;;12.10;61.30;;;;;;12890942;23;20169;-77
2022/03/11 03:54:18;;;;;;;13.30;7.80;;;12.10;61.40;;;;;;12925011;23;20194;-77
2022/03/11 03:59:24;;;;;;;10.70;7.50;;;12.20;61.10;;;;;;12916876;23;20251;-77
2022/03/11 04:04:26;;;;;;;10.53;7.23;;;12.10;61.30;;;;;;12916475;23;20251;-77
2022/03/11 04:09:29;;;;;;;11.53;7.17;;;12.10;60.70;;;;;;12889489;23;20181;-77
2022/03/11 04:14:31;;;;;;;13.93;7.23;;;12.20;61.00;;;;;;12917183;23;20207;-77
2022/03/11 04:19:34;;;;;;;11.70;7.13;;;12.10;60.80;;;;;;12916406;23;20178;-77
2022/03/11 04:24:37;;;;;;;13.90;7.77;;;12.20;60.50;;;;;;12933312;23;20235;-77
2022/03/11 04:29:41;;;;;;;10.93;6.90;;;12.30;60.70;;;;;;12890593;23;20172;-77
2022/03/11 04:34:43;;;;;;;13.10;8.17;;;12.30;60.50;;;;;;12916337;23;20509;-77
2022/03/11 04:39:45;;;;;;;14.27;8.03;;;12.20;60.60;;;;;;12934101;23;20259;-77
2022/03/11 04:44:48;;;;;;;13.33;7.60;;;12.20;60.50;;;;;;12864818;23;20198;-77
2022/03/11 04:49:50;;;;;;;13.10;7.73;;;12.00;60.40;;;;;;12888709;23;20182;-77
2022/03/11 04:54:53;;;;;;;14.17;8.30;;;11.40;61.70;;;;;;12889718;23;20678;-77
2022/03/11 04:59:55;;;;;;;11.57;6.80;;;12.10;60.80;;;;;;12889444;23;20167;-77
2022/03/11 05:05:07;;;;;;;16.67;8.90;;;11.90;60.60;;;;;;12916233;23;20190;-77
2022/03/11 05:10:11;;;;;;;10.33;7.17;;;12.00;59.90;;;;;;12890538;23;20215;-77
2022/03/11 05:15:14;;;;;;;13.13;8.33;;;12.10;60.40;;;;;;12889706;23;20172;-78
2022/03/11 05:20:17;;;;;;;14.70;7.47;;;12.00;56.30;;;;;;12907829;23;20219;-77
2022/03/11 05:25:19;;;;;;;12.03;7.20;;;12.00;59.90;;;;;;12893271;23;20264;-77
2022/03/11 05:30:22;;;;;;;12.50;7.57;;;12.10;60.00;;;;;;12868101;23;20176;-77
2022/03/11 05:35:24;;;;;;;11.77;7.37;;;12.30;59.40;;;;;;12937207;23;20173;-78
2022/03/11 05:40:27;;;;;;;10.97;7.40;;;12.30;53.40;;;;;;12920191;23;20195;-77
2022/03/11 05:45:30;;;;;;;12.33;7.40;;;12.10;59.90;;;;;;12893200;23;20214;-77
2022/03/11 05:50:34;;;;;;;14.27;7.90;;;12.20;59.70;;;;;;12913366;23;20165;-77
2022/03/11 05:55:37;;;;;;;11.87;6.87;;;11.70;60.00;;;;;;12895684;23;20197;-78
2022/03/11 06:00:40;;;;;;;11.53;7.67;;;12.10;60.20;;;;;;12891647;23;20474;-77
2022/03/11 06:05:44;;;;;;;14.77;7.07;;;12.10;59.40;;;;;;12892669;23;20257;-77
2022/03/11 06:10:47;;;;;;;14.23;7.43;;;12.10;58.80;;;;;;12919886;23;20537;-78
2022/03/11 06:15:49;;;;;;;19.53;10.93;;;12.10;58.80;;;;;;12919319;23;20586;-79
2022/03/11 06:20:52;;;;;;;17.93;10.77;;;11.70;46.80;;;;;;12909665;23;20229;-78
2022/03/11 06:25:54;;;;;;;17.50;10.30;;;11.50;46.90;;;;;;12918573;23;20190;-78
2022/03/11 06:30:57;;;;;;;18.90;11.10;;;11.80;45.70;;;;;;12891911;23;20169;-79
2022/03/11 06:36:00;;;;;;;16.43;11.00;;;11.80;45.70;;;;;;12891842;23;20168;-78
2022/03/11 06:41:02;;;;;;;22.07;11.73;;;11.30;46.50;;;;;;12891966;23;20172;-79
2022/03/11 06:46:05;;;;;;;21.03;10.90;;;11.50;46.80;;;;;;12918382;23;20191;-79
2022/03/11 06:51:07;;;;;;;16.10;10.57;;;12.00;47.30;;;;;;12890735;23;20177;-79
2022/03/11 06:56:10;;;;;;;18.33;10.53;;;11.70;48.40;;;;;;12865983;23;20747;-79
2022/03/11 07:01:14;;;;;;;24.57;12.03;;;12.10;48.30;;;;;;12935127;23;20496;-79
2022/03/11 07:06:16;;;;;;;18.80;10.17;;;11.80;45.40;;;;;;12935843;23;20517;-79
2022/03/11 07:11:19;;;;;;;19.30;10.73;;;11.90;49.10;;;;;;12918264;23;20471;-79
2022/03/11 07:16:21;;;;;;;17.40;10.20;;;11.50;49.50;;;;;;12890843;23;20666;-80
2022/03/11 07:21:24;;;;;;;16.33;9.33;;;11.60;48.60;;;;;;12916782;23;20172;-80
2022/03/11 07:26:26;;;;;;;17.07;9.93;;;12.10;50.00;;;;;;12915792;23;20189;-80
2022/03/11 07:31:29;;;;;;;17.53;10.47;;;12.30;49.80;;;;;;12916729;23;20188;-80
2022/03/11 07:36:34;;;;;;;16.87;9.10;;;12.30;49.50;;;;;;12917665;23;20629;-80
2022/03/11 07:41:37;;;;;;;17.50;10.10;;;11.90;50.90;;;;;;12865031;23;20181;-80
2022/03/11 07:46:40;;;;;;;15.00;10.03;;;11.90;45.20;;;;;;12916929;23;20230;-80
2022/03/11 07:51:42;;;;;;;15.13;9.87;;;12.00;51.40;;;;;;12890112;23;20686;-80
2022/03/11 07:56:44;;;;;;;15.10;9.17;;;12.10;48.50;;;;;;12916274;23;20174;-79
2022/03/11 08:01:47;;;;;;;19.43;8.50;;;11.70;51.60;;;;;;12889333;23;20179;-79
2022/03/11 08:06:50;;;;;;;14.20;8.57;;;10.60;62.50;;;;;;12916471;23;20505;-79
2022/03/11 08:11:52;;;;;;;13.77;7.80;;;12.00;56.70;;;;;;12916503;23;20531;-79
2022/03/11 08:16:55;;;;;;;17.20;8.90;;;12.00;54.40;;;;;;12888304;23;20179;-78
2022/03/11 08:21:58;;;;;;;12.10;7.60;;;12.30;54.90;;;;;;12913008;23;20165;-78
2022/03/11 08:27:00;;;;;;;12.87;7.73;;;11.30;57.60;;;;;;12886914;23;20173;-79
2022/03/11 08:32:03;;;;;;;14.13;8.80;;;12.40;55.00;;;;;;12886864;23;20179;-78
2022/03/11 08:37:06;;;;;;;13.23;8.67;;;12.60;54.10;;;;;;12885248;23;20639;-77
2022/03/11 08:42:08;;;;;;;13.37;7.90;;;12.50;52.80;;;;;;12912124;23;20569;-77
2022/03/11 08:47:12;;;;;;;18.40;7.53;;;12.80;53.10;;;;;;12912280;23;20173;-77
2022/03/11 08:52:15;;;;;;;15.83;7.57;;;12.10;52.00;;;;;;12913567;23;20193;-79
2022/03/11 08:57:18;;;;;;;13.03;8.10;;;12.50;54.00;;;;;;12886976;23;20177;-79
2022/03/11 09:02:22;;;;;;;15.37;7.20;;;12.80;53.40;;;;;;12916066;23;20185;-81
2022/03/11 09:07:29;;;;;;;11.00;7.10;;;12.50;53.80;;;;;;12890674;23;20166;-80
2022/03/11 09:12:31;;;;;;;14.53;7.67;;;12.70;53.10;;;;;;12934805;23;20173;-79
2022/03/11 09:17:35;;;;;;;11.90;7.13;;;12.70;51.30;;;;;;12917131;23;20178;-80
2022/03/11 09:22:38;;;;;;;13.13;7.80;;;13.10;52.70;;;;;;12918159;23;20184;-80
2022/03/11 09:27:41;;;;;;;13.47;7.17;;;12.80;52.30;;;;;;12865369;23;20176;-80
2022/03/11 09:32:44;;;;;;;12.63;7.70;;;12.60;52.60;;;;;;12918046;23;20179;-80
2022/03/11 09:37:46;;;;;;;15.30;7.30;;;12.30;54.10;;;;;;12919324;23;20171;-80
2022/03/11 09:42:50;;;;;;;14.70;7.07;;;12.50;53.30;;;;;;12891459;23;20726;-80
2022/03/11 09:47:54;;;;;;;13.13;7.17;;;12.50;49.30;;;;;;12918522;23;20521;-80
2022/03/11 09:53:02;;;;;;;9.37;6.50;;;12.00;52.80;;;;;;12918819;23;20258;-80
2022/03/11 09:58:04;;;;;;;10.73;6.50;;;12.70;53.20;;;;;;12888676;23;20702;-84
2022/03/11 10:03:07;;;;;;;11.97;7.80;;;12.90;52.80;;;;;;12918118;23;20189;-84
2022/03/11 10:08:09;;;;;;;13.50;7.67;;;12.60;46.20;;;;;;12889128;23;20171;-84
2022/03/11 10:13:13;;;;;;;10.90;6.27;;;12.70;47.90;;;;;;12890859;23;20167;-84
2022/03/11 10:18:16;;;;;;;12.37;7.03;;;12.80;52.80;;;;;;12888106;23;20210;-83
2022/03/11 10:23:18;;;;;;;10.87;6.27;;;12.90;50.70;;;;;;12891138;23;20198;-83
2022/03/11 10:28:37;;;;;;;14.17;7.83;;;12.80;52.90;;;;;;12934753;23;20166;-80
2022/03/11 10:33:39;;;;;;;18.07;6.30;;;12.50;46.20;;;;;;12889532;23;20173;-79
2022/03/11 10:38:46;;;;;;;14.93;8.03;;;12.40;52.20;;;;;;12916176;23;20205;-79
2022/03/11 10:44:03;;;;;;;14.17;6.77;;;12.60;51.30;;;;;;12889197;23;20201;-83
2022/03/11 10:49:05;;;;;;;9.10;6.73;;;12.50;48.90;;;;;;12887298;23;20185;-81
2022/03/11 10:54:08;;;;;;;10.17;5.90;;;13.00;52.80;;;;;;12912688;23;20221;-80
2022/03/11 10:59:28;;;;;;;10.40;5.60;;;12.50;52.00;;;;;;12885966;23;20176;-79
2022/03/11 11:04:31;;;;;;;8.70;5.60;;;12.50;52.90;;;;;;12890002;23;20189;-79
2022/03/11 11:09:34;;;;;;;11.13;6.07;;;12.80;52.60;;;;;;12916424;23;20235;-79
2022/03/11 11:14:38;;;;;;;9.00;5.83;;;12.40;50.50;;;;;;12890472;23;20252;-80
2022/03/11 11:19:44;;;;;;;10.27;6.20;;;12.40;53.30;;;;;;12920653;23;20172;-79
2022/03/11 11:24:49;;;;;;;10.60;6.37;;;12.20;52.40;;;;;;12890372;23;20196;-79
2022/03/11 11:29:53;;;;;;;11.53;5.67;;;12.40;50.20;;;;;;12916623;23;20513;-79
2022/03/11 11:35:27;;;;;;;7.30;5.23;;;12.70;52.90;;;;;;12916123;23;20180;-80
2022/03/11 11:40:36;;;;;;;9.80;5.83;;;12.70;53.00;;;;;;12889276;23;20178;-80
2022/03/11 11:45:44;;;;;;;9.20;5.87;;;12.90;52.80;;;;;;12887964;23;20537;-79
2022/03/11 11:50:48;;;;;;;11.27;5.67;;;13.10;52.30;;;;;;12934358;23;20192;-80
2022/03/11 11:55:51;;;;;;;7.73;4.90;;;12.70;52.40;;;;;;12916233;23;20818;-78
2022/03/11 12:00:55;;;;;;;10.20;6.23;;;12.80;52.80;;;;;;12860760;23;20208;-78
2022/03/11 12:05:58;;;;;;;7.53;4.47;;;12.60;53.40;;;;;;12905446;23;20219;-78
2022/03/11 12:11:00;;;;;;;9.57;5.50;;;12.00;45.80;;;;;;12915299;23;20211;-78
2022/03/11 12:16:14;;;;;;;8.40;5.20;;;12.20;52.90;;;;;;12888322;23;20175;-78
2022/03/11 12:21:27;;;;;;;8.23;5.93;;;12.60;53.50;;;;;;12934675;23;20227;-78
2022/03/11 12:26:36;;;;;;;9.80;5.17;;;12.30;53.20;;;;;;12888422;23;20203;-78
2022/03/11 12:31:43;;;;;;;7.50;4.47;;;11.30;45.20;;;;;;12887482;23;20175;-78
2022/03/11 12:36:48;;;;;;;7.63;4.87;;;11.70;55.10;;;;;;12906196;23;20180;-77
2022/03/11 12:41:50;;;;;;;7.03;5.17;;;11.80;53.30;;;;;;12914170;23;20226;-78
2022/03/11 12:46:53;;;;;;;7.77;5.07;;;12.10;54.60;;;;;;12914361;23;20217;-78
2022/03/11 12:52:19;;;;;;;9.57;4.30;;;11.80;47.40;;;;;;12915377;23;20189;-78
2022/03/11 12:57:21;;;;;;;9.00;5.40;;;12.30;50.70;;;;;;12906372;23;20173;-78
2022/03/11 13:02:24;;;;;;;8.90;4.50;;;12.20;52.30;;;;;;12916334;23;20490;-78
2022/03/11 13:07:30;;;;;;;8.80;4.77;;;12.50;53.70;;;;;;12887481;23;20189;-78
2022/03/11 13:12:37;;;;;;;8.73;5.37;;;12.30;50.90;;;;;;12913832;23;20167;-78
2022/03/11 13:17:42;;;;;;;11.90;5.17;;;12.30;52.80;;;;;;12927298;23;20229;-78
2022/03/11 13:22:49;;;;;;;8.57;5.00;;;12.50;53.60;;;;;;12915256;23;20589;-78
2022/03/11 13:27:52;;;;;;;10.33;5.57;;;12.40;46.90;;;;;;12934335;23;20174;-78
2022/03/11 13:32:54;;;;;;;6.63;4.20;;;12.60;47.80;;;;;;12887805;23;20207;-78
2022/03/11 13:37:58;;;;;;;6.63;4.43;;;12.60;53.70;;;;;;12887791;23;20197;-78
2022/03/11 13:43:13;;;;;;;8.23;4.73;;;12.10;52.20;;;;;;12935651;23;20164;-78
2022/03/11 13:48:16;;;;;;;8.53;5.73;;;12.50;53.00;;;;;;12928133;23;20173;-80
2022/03/11 13:53:29;;;;;;;7.13;5.20;;;12.30;43.30;;;;;;12931223;23;20196;-79
2022/03/11 13:58:32;;;;;;;7.53;4.10;;;12.60;51.70;;;;;;12891357;23;20249;-79
2022/03/11 14:03:46;;;;;;;8.57;4.63;;;12.60;53.50;;;;;;12890496;23;20538;-80
2022/03/11 14:08:51;;;;;;;12.10;7.17;;;13.00;53.40;;;;;;12891660;23;20228;-80
2022/03/11 14:13:54;;;;;;;7.70;4.30;;;12.50;45.00;;;;;;12919519;23;20223;-80
2022/03/11 14:18:57;;;;;;;11.30;5.70;;;12.90;53.50;;;;;;12867237;23;20235;-80
2022/03/11 14:23:59;;;;;;;7.93;5.77;;;12.70;48.70;;;;;;12918848;23;20239;-79
2022/03/11 14:29:02;;;;;;;6.97;4.03;;;12.70;50.00;;;;;;12890830;23;20174;-79
2022/03/11 14:34:05;;;;;;;8.23;4.43;;;12.90;53.50;;;;;;12922732;23;20229;-79
2022/03/11 14:39:07;;;;;;;7.63;4.13;;;12.50;59.10;;;;;;12916277;23;20735;-79
2022/03/11 14:44:10;;;;;;;7.40;4.50;;;13.30;54.00;;;;;;12863907;23;20247;-79
2022/03/11 14:49:12;;;;;;;10.73;4.90;;;13.30;54.10;;;;;;12915546;23;20509;-80
2022/03/11 14:54:15;;;;;;;13.90;7.57;;;13.40;50.70;;;;;;12913021;23;20577;-80
2022/03/11 14:59:21;;;;;;;13.30;6.73;;;9.80;40.10;;;;;;12887927;23;20171;-80
2022/03/11 15:04:25;;;;;;;19.43;7.30;;;9.10;37.60;;;;;;12887324;23;20212;-79
2022/03/11 15:09:27;;;;;;;16.77;8.17;;;8.30;49.20;;;;;;12889335;23;20196;-80
2022/03/11 15:14:29;;;;;;;26.13;10.57;;;9.00;43.50;;;;;;12888806;23;20487;-80
2022/03/11 15:19:32;;;;;;;21.10;9.10;;;11.10;62.10;;;;;;12922600;23;20173;-80
2022/03/11 15:24:36;;;;;;;16.00;7.70;;;12.90;60.60;;;;;;12918501;23;20188;-82
2022/03/11 15:29:39;;;;;;;22.33;8.07;;;11.00;56.60;;;;;;12892127;23;20169;-80
2022/03/11 15:34:42;;;;;;;17.80;7.37;;;13.70;63.20;;;;;;12896780;23;20244;-80
2022/03/11 15:39:46;;;;;;;22.47;8.13;;;14.40;61.10;;;;;;12889762;23;20174;-80
2022/03/11 15:44:49;;;;;;;17.17;9.63;;;15.40;60.10;;;;;;12915884;23;20189;-81
2022/03/11 15:49:51;;;;;;;15.73;8.40;;;9.00;41.50;;;;;;12917456;23;20170;-81
2022/03/11 15:54:55;;;;;;;18.57;9.00;;;6.60;42.90;;;;;;12890325;23;20570;-80
2022/03/11 15:59:58;;;;;;;16.97;9.43;;;5.00;45.60;;;;;;12917305;23;20166;-79
2022/03/11 16:05:17;;;;;;;21.63;11.03;;;6.00;44.90;;;;;;12889343;23;20194;-79
2022/03/11 16:10:28;;;;;;;18.93;9.33;;;4.10;47.70;;;;;;12916349;23;20228;-80
2022/03/11 16:15:32;;;;;;;18.00;10.07;;;3.60;50.10;;;;;;12935654;23;20166;-80
2022/03/11 16:20:35;;;;;;;16.80;9.03;;;3.40;49.40;;;;;;12891120;23;20178;-82
2022/03/11 16:25:37;;;;;;;93.17;28.07;;;8.10;78.10;;;;;;12934193;23;20244;-82
2022/03/11 16:30:57;;;;;;;116.83;40.37;;;10.10;50.50;;;;;;12912066;23;20618;-86
2022/03/11 16:36:19;;;;;;;29.83;10.87;;;9.70;56.90;;;;;;12869561;23;20849;-82
2022/03/11 16:41:22;;;;;;;108.80;35.67;;;9.50;48.90;;;;;;12889736;23;20244;-82
2022/03/11 16:46:25;;;;;;;103.93;52.33;;;10.00;53.60;;;;;;12916825;23;20569;-82
2022/03/11 16:51:28;;;;;;;135.67;77.13;;;10.00;48.80;;;;;;12916111;23;20166;-82
2022/03/11 16:56:31;;;;;;;110.80;77.82;;;9.90;47.60;;;;;;12914568;23;20453;-80
2022/03/11 17:01:35;;;;;;;27.40;14.83;;;3.80;49.70;;;;;;12889077;23;20186;-80
2022/03/11 17:06:38;;;;;;;24.93;13.10;;;2.20;55.10;;;;;;12890376;23;20183;-80
2022/03/11 17:11:42;;;;;;;37.83;14.70;;;1.20;59.00;;;;;;12935185;23;20542;-79
2022/03/11 17:16:45;;;;;;;45.47;19.57;;;0.80;60.20;;;;;;12917411;23;20200;-80
2022/03/11 17:21:48;;;;;;;39.73;15.73;;;0.50;60.70;;;;;;12894230;23;20201;-80
2022/03/11 17:26:50;;;;;;;60.50;25.27;;;0.40;61.50;;;;;;12920232;23;20672;-80
2022/03/11 17:31:53;;;;;;;34.20;17.73;;;0.10;62.60;;;;;;12921023;23;20167;-82
2022/03/11 17:36:56;;;;;;;29.00;13.83;;;0.00;62.80;;;;;;12894054;23;20200;-81
2022/03/11 17:41:58;;;;;;;34.67;15.57;;;-0.10;62.90;;;;;;12920600;23;20171;-81
2022/03/11 17:47:01;;;;;;;36.53;15.90;;;0.10;64.00;;;;;;12920513;23;20189;-81
2022/03/11 17:52:06;;;;;;;36.77;15.33;;;0.00;62.70;;;;;;12920209;23;20244;-81
2022/03/11 17:57:09;;;;;;;42.70;17.40;;;0.60;76.00;;;;;;12893080;23;20212;-80
2022/03/11 18:02:12;;;;;;;47.03;16.63;;;0.20;63.80;;;;;;12919107;23;20492;-80
2022/03/11 18:07:15;;;;;;;47.30;18.53;;;-0.10;65.00;;;;;;12919445;23;20194;-80
2022/03/11 18:12:19;;;;;;;32.90;16.77;;;-0.50;66.80;;;;;;12920640;23;20694;-80
2022/03/11 18:17:23;;;;;;;39.37;18.53;;;-0.70;67.00;;;;;;12893696;23;20235;-80
2022/03/11 18:22:26;;;;;;;44.90;20.03;;;-0.90;68.00;;;;;;12936877;23;20172;-80
2022/03/11 18:27:30;;;;;;;42.37;17.67;;;;;;;;;;12865823;23;20195;-80
2022/03/11 18:32:33;;;;;;;46.87;20.30;;;-1.20;69.00;;;;;;12892677;23;20178;-80
